Time;durP1;ratioP1;P1;durP2;ratioP2;P2;SDS_P1;SDS_P2;PMS_P1;PMS_P2;Temp;Humidity;BMP_temperature;BMP_pressure;BME280_temperature;BME280_humidity;BME280_pressure;Samples;Min_cycle;Max_cycle;Signal;HPM_P1;HPM_P2
2023/12/12 00:02:27;;;;;;;28.05;25.08;;;;;;;5.11;72.38;94626.22;5093356;28;20201;-70
2023/12/12 00:04:54;;;;;;;32.70;27.83;;;;;;;5.07;72.36;94607.75;5094022;28;20201;-70
2023/12/12 00:07:26;;;;;;;32.55;28.98;;;;;;;5.09;72.36;94606.63;5059941;28;20271;-70
2023/12/12 00:09:54;;;;;;;32.53;29.05;;;;;;;5.06;72.03;94600.69;5059724;28;20197;-70
2023/12/12 00:12:25;;;;;;;31.92;28.58;;;;;;;5.06;72.29;94605.34;5059473;28;20690;-70
2023/12/12 00:14:52;;;;;;;31.65;28.40;;;;;;;5.01;72.51;94602.78;5057573;28;20286;-69
2023/12/12 00:17:19;;;;;;;32.92;29.63;;;;;;;5.00;72.82;94577.38;5076769;28;20217;-69
2023/12/12 00:19:50;;;;;;;30.52;27.33;;;;;;;4.99;72.70;94583.19;5076691;28;20197;-69
2023/12/12 00:22:17;;;;;;;32.00;28.70;;;;;;;5.01;72.81;94589.13;5076277;28;20197;-69
2023/12/12 00:24:44;;;;;;;30.40;27.15;;;;;;;5.03;72.82;94617.72;5076812;28;20193;-69
2023/12/12 00:27:32;;;;;;;27.58;24.80;;;;;;;5.09;72.68;94629.28;5075906;28;20266;-69
2023/12/12 00:29:59;;;;;;;28.60;25.48;;;;;;;5.11;72.46;94628.94;5060295;28;20193;-69
2023/12/12 00:32:28;;;;;;;27.70;24.80;;;;;;;5.16;72.04;94623.31;5076461;28;20258;-69
2023/12/12 00:34:59;;;;;;;27.80;24.92;;;;;;;5.17;72.03;94625.72;5076287;28;20593;-69
2023/12/12 00:37:28;;;;;;;28.17;25.27;;;;;;;5.19;72.40;94631.66;5075597;28;20270;-69
2023/12/12 00:39:54;;;;;;;26.98;24.27;;;;;;;5.19;72.16;94637.13;5076408;28;20222;-69
2023/12/12 00:42:23;;;;;;;26.45;23.52;;;;;;;5.21;72.04;94637.59;5075606;28;20250;-69
2023/12/12 00:44:50;;;;;;;26.75;23.88;;;;;;;5.23;72.38;94634.53;5076325;28;20205;-69
2023/12/12 00:47:17;;;;;;;25.02;22.33;;;;;;;5.25;72.02;94621.31;5075114;28;20238;-69
2023/12/12 00:49:45;;;;;;;25.25;22.77;;;;;;;5.31;71.75;94617.28;5075621;28;20197;-69
2023/12/12 00:52:14;;;;;;;26.35;22.38;;;;;;;5.35;71.34;94614.69;5075767;28;20189;-69
2023/12/12 00:54:41;;;;;;;24.50;21.98;;;;;;;5.35;71.31;94629.16;5075434;28;20271;-69
2023/12/12 00:57:08;;;;;;;22.90;20.60;;;;;;;5.39;71.74;94629.31;5076019;28;20278;-69
2023/12/12 00:59:35;;;;;;;24.08;21.65;;;;;;;5.42;71.77;94632.19;5074823;28;20197;-69
2023/12/12 01:02:02;;;;;;;24.63;22.20;;;;;;;5.35;71.40;94614.69;5076086;28;20258;-69
2023/12/12 01:04:33;;;;;;;24.58;21.98;;;;;;;5.31;71.48;94615.34;5075745;28;20201;-69
2023/12/12 01:07:01;;;;;;;24.17;20.25;;;;;;;5.32;71.92;94633.34;5076263;28;20203;-70
2023/12/12 01:09:29;;;;;;;23.58;21.15;;;;;;;5.32;71.92;94636.09;5075947;28;20206;-70
2023/12/12 01:11:56;;;;;;;23.55;21.02;;;;;;;5.34;71.27;94649.44;5076897;28;20282;-69
2023/12/12 01:14:23;;;;;;;23.45;20.90;;;;;;;5.35;71.14;94652.97;5074720;28;20665;-69
2023/12/12 01:16:50;;;;;;;23.15;20.75;;;;;;;5.34;71.40;94643.16;5074861;28;20225;-69
2023/12/12 01:19:17;;;;;;;22.42;20.25;;;;;;;5.30;71.33;94646.56;5075731;28;20193;-69
2023/12/12 01:21:44;;;;;;;22.92;20.58;;;;;;;5.32;71.72;94638.00;5075736;28;20197;-69
2023/12/12 01:24:11;;;;;;;24.58;20.52;;;;;;;5.32;71.34;94630.59;5075200;28;20189;-69
2023/12/12 01:26:41;;;;;;;21.17;18.95;;;;;;;5.31;71.31;94653.63;5074968;28;20215;-69
2023/12/12 01:29:11;;;;;;;22.00;19.70;;;;;;;5.31;71.27;94655.56;5075840;28;20241;-69
2023/12/12 01:31:38;;;;;;;20.48;18.38;;;;;;;5.31;71.52;94648.16;5075773;28;20303;-69
2023/12/12 01:34:05;;;;;;;20.20;17.95;;;;;;;5.30;71.38;94649.28;5074972;28;20202;-69
2023/12/12 01:36:32;;;;;;;20.30;17.75;;;;;;;5.30;71.41;94632.06;5076061;28;20274;-69
2023/12/12 01:38:59;;;;;;;19.73;17.73;;;;;;;5.30;71.61;94618.38;5075897;28;20177;-70
2023/12/12 01:41:26;;;;;;;18.83;16.90;;;;;;;5.27;71.77;94613.59;5075021;28;20250;-70
2023/12/12 01:43:54;;;;;;;18.83;16.83;;;;;;;5.28;72.51;94609.72;5074977;28;20203;-70
2023/12/12 01:46:21;;;;;;;20.17;18.02;;;;;;;5.26;72.47;94598.31;5075295;28;20197;-70
2023/12/12 01:48:49;;;;;;;19.73;17.77;;;;;;;5.21;72.48;94591.09;5075371;28;20201;-69
2023/12/12 01:51:16;;;;;;;19.30;17.05;;;;;;;5.20;72.67;94610.59;5074908;28;20228;-69
2023/12/12 01:53:46;;;;;;;16.80;15.10;;;;;;;5.23;73.11;94607.19;5074393;28;20621;-69
2023/12/12 01:56:14;;;;;;;16.75;15.00;;;;;;;5.28;72.39;94604.25;5074594;28;20282;-69
2023/12/12 01:58:42;;;;;;;20.63;18.52;;;;;;;5.31;72.21;94609.88;5075093;28;20209;-70
2023/12/12 02:01:10;;;;;;;20.23;17.90;;;;;;;5.28;71.26;94613.25;5074427;28;20208;-69
2023/12/12 02:03:37;;;;;;;20.75;18.70;;;;;;;5.27;71.84;94610.88;5074304;28;20247;-69
2023/12/12 02:06:05;;;;;;;21.70;19.40;;;;;;;5.25;72.11;94616.66;5074440;28;20246;-69
2023/12/12 02:08:32;;;;;;;23.42;21.05;;;;;;;5.25;72.29;94633.06;5074490;28;20236;-69
2023/12/12 02:10:59;;;;;;;23.38;20.13;;;;;;;5.18;72.63;94635.50;5073985;28;20209;-69
2023/12/12 02:13:28;;;;;;;24.05;21.70;;;;;;;5.17;72.45;94613.97;5074158;28;20629;-69
2023/12/12 02:15:55;;;;;;;24.58;22.08;;;;;;;5.11;72.50;94623.50;5055118;28;20233;-69
2023/12/12 02:18:28;;;;;;;24.08;21.52;;;;;;;5.00;72.69;94623.06;5054967;28;20214;-69
2023/12/12 02:20:56;;;;;;;24.17;21.55;;;;;;;4.94;73.09;94638.84;5054069;28;20193;-69
2023/12/12 02:23:24;;;;;;;24.60;22.02;;;;;;;4.90;73.17;94631.59;5054441;28;20190;-70
2023/12/12 02:25:51;;;;;;;28.20;25.33;;;;;;;4.88;72.92;94656.53;5054180;28;20209;-71
2023/12/12 02:28:19;;;;;;;27.67;23.98;;;;;;;4.81;72.63;94659.78;5054134;28;20232;-71
2023/12/12 02:30:46;;;;;;;26.55;23.80;;;;;;;4.73;72.79;94651.63;5055002;28;20186;-71
2023/12/12 02:33:13;;;;;;;25.73;23.13;;;;;;;4.64;73.13;94650.81;5054361;28;20198;-71
2023/12/12 02:35:40;;;;;;;23.55;21.25;;;;;;;4.63;73.42;94646.50;5053919;28;20205;-71
2023/12/12 02:38:09;;;;;;;22.75;20.50;;;;;;;4.66;73.30;94657.56;5053657;28;20275;-71
2023/12/12 02:40:38;;;;;;;23.67;21.27;;;;;;;4.67;73.15;94661.09;5053993;28;20532;-71
2023/12/12 02:43:05;;;;;;;22.67;19.88;;;;;;;4.63;73.30;94679.28;5054319;28;20193;-71
2023/12/12 02:45:32;;;;;;;22.25;19.95;;;;;;;4.63;73.28;94671.06;5054838;28;20194;-71
2023/12/12 02:48:01;;;;;;;22.30;19.77;;;;;;;4.67;73.53;94672.81;5054147;28;20205;-71
2023/12/12 02:50:28;;;;;;;22.33;19.95;;;;;;;4.70;72.93;94672.19;5054649;28;20202;-71
2023/12/12 02:52:55;;;;;;;21.73;19.63;;;;;;;4.75;72.99;94671.19;5054340;28;20210;-71
2023/12/12 02:55:22;;;;;;;21.23;19.02;;;;;;;4.77;72.81;94677.16;5053858;28;20194;-71
2023/12/12 02:57:51;;;;;;;20.92;18.73;;;;;;;4.78;72.38;94668.63;5053486;28;20213;-71
2023/12/12 03:00:18;;;;;;;20.20;18.23;;;;;;;4.79;72.60;94653.84;5054204;28;20241;-71
2023/12/12 03:02:45;;;;;;;20.90;18.70;;;;;;;4.80;72.22;94655.44;5053901;28;20201;-71
2023/12/12 03:05:12;;;;;;;20.48;18.58;;;;;;;4.81;72.46;94665.25;5053721;28;20691;-71
2023/12/12 03:07:39;;;;;;;20.38;18.27;;;;;;;4.86;72.43;94658.78;5054491;28;20264;-71
2023/12/12 03:10:07;;;;;;;19.42;17.15;;;;;;;4.86;72.36;94647.06;5070944;28;20243;-71
2023/12/12 03:12:34;;;;;;;20.08;17.98;;;;;;;4.88;72.01;94647.53;5053949;28;20234;-71
2023/12/12 03:15:05;;;;;;;20.17;18.08;;;;;;;4.90;71.91;94639.81;5053441;28;20237;-71
2023/12/12 03:17:35;;;;;;;20.08;18.08;;;;;;;4.91;72.10;94644.16;5054286;28;20210;-71
2023/12/12 03:20:02;;;;;;;20.30;18.30;;;;;;;4.92;72.53;94641.09;5053385;28;20281;-71
2023/12/12 03:22:29;;;;;;;19.83;17.77;;;;;;;4.93;72.23;94628.22;5056518;28;20204;-71
2023/12/12 03:24:56;;;;;;;19.45;17.50;;;;;;;4.94;71.86;94630.66;5057827;28;20194;-71
2023/12/12 03:27:23;;;;;;;20.20;18.10;;;;;;;4.94;71.99;94641.56;5056924;28;20622;-71
2023/12/12 03:29:50;;;;;;;19.88;17.77;;;;;;;4.94;71.78;94644.31;5057763;28;20193;-71
2023/12/12 03:32:18;;;;;;;19.45;17.42;;;;;;;4.97;72.09;94635.44;5056886;28;20630;-71
2023/12/12 03:34:46;;;;;;;19.60;17.35;;;;;;;5.00;72.15;94632.03;5057377;28;20232;-71
2023/12/12 03:37:14;;;;;;;19.63;17.63;;;;;;;5.09;72.29;94620.28;5057395;28;20213;-71
2023/12/12 03:39:41;;;;;;;14.60;13.27;;;;;;;5.21;71.96;94623.13;5056986;28;20255;-71
2023/12/12 03:42:09;;;;;;;12.95;11.32;;;;;;;5.38;71.17;94627.69;5057061;28;20224;-71
2023/12/12 03:44:36;;;;;;;10.00;8.90;;;;;;;5.58;70.57;94617.91;5057082;28;20193;-71
2023/12/12 03:47:03;;;;;;;6.82;6.18;;;;;;;5.78;69.20;94614.41;5040273;28;20194;-71
2023/12/12 03:49:31;;;;;;;6.53;5.93;;;;;;;5.96;68.37;94621.38;5057538;28;20194;-71
2023/12/12 03:51:58;;;;;;;5.35;4.85;;;;;;;6.13;67.27;94619.63;5040266;28;20190;-71
2023/12/12 03:54:25;;;;;;;5.10;4.60;;;;;;;6.29;66.77;94614.34;5056666;28;20214;-71
2023/12/12 03:56:52;;;;;;;5.28;4.10;;;;;;;6.41;66.06;94617.09;5056829;28;20209;-71
2023/12/12 03:59:19;;;;;;;3.80;3.50;;;;;;;6.52;65.08;94618.28;5056503;28;20598;-71
2023/12/12 04:01:49;;;;;;;3.05;2.85;;;;;;;6.60;64.10;94611.09;5056385;28;20225;-71
2023/12/12 04:04:17;;;;;;;3.40;3.10;;;;;;;6.70;63.96;94616.97;5057170;28;20193;-71
2023/12/12 04:06:47;;;;;;;3.22;2.92;;;;;;;6.80;63.56;94628.66;5057007;28;20202;-71
2023/12/12 04:09:16;;;;;;;10.35;9.25;;;;;;;6.82;63.39;94646.34;5056591;28;20321;-71
2023/12/12 04:11:43;;;;;;;23.63;21.13;;;;;;;6.60;64.64;94650.25;5039763;28;20304;-71
2023/12/12 04:14:10;;;;;;;25.05;21.38;;;;;;;6.29;65.23;94638.97;5059190;28;20205;-72
2023/12/12 04:16:37;;;;;;;25.92;22.55;;;;;;;6.01;66.14;94653.22;5097153;28;20188;-72
2023/12/12 04:19:04;;;;;;;23.95;21.65;;;;;;;5.81;67.58;94649.31;5079900;28;20205;-72
2023/12/12 04:21:31;;;;;;;27.90;25.02;;;;;;;5.69;68.07;94660.97;5096836;28;20204;-72
2023/12/12 04:24:02;;;;;;;27.02;24.30;;;;;;;5.60;68.89;94671.16;5080335;28;20200;-71
2023/12/12 04:26:30;;;;;;;28.45;25.55;;;;;;;5.55;69.28;94674.09;5080170;28;20243;-71
2023/12/12 04:28:57;;;;;;;33.58;30.17;;;;;;;5.48;69.81;94668.31;5080327;28;20207;-71
2023/12/12 04:31:24;;;;;;;32.67;29.30;;;;;;;5.38;69.98;94680.47;5096271;28;20200;-71
2023/12/12 04:33:50;;;;;;;31.90;28.77;;;;;;;5.30;70.32;94682.13;5079614;28;20185;-71
2023/12/12 04:36:17;;;;;;;32.65;29.30;;;;;;;5.29;70.63;94685.16;5097117;28;20189;-71
2023/12/12 04:38:44;;;;;;;29.98;26.92;;;;;;;5.26;70.97;94689.34;5095766;28;20224;-71
2023/12/12 04:41:13;;;;;;;27.55;24.75;;;;;;;5.19;70.92;94686.34;5096997;28;20237;-71
2023/12/12 04:43:42;;;;;;;25.63;22.95;;;;;;;5.15;71.30;94685.38;5079808;28;20200;-71
2023/12/12 04:46:09;;;;;;;24.95;22.27;;;;;;;5.18;71.29;94695.66;5079636;28;20196;-71
2023/12/12 04:48:36;;;;;;;24.55;22.15;;;;;;;5.16;71.34;94703.41;5096118;28;20200;-71
2023/12/12 04:51:03;;;;;;;24.67;22.15;;;;;;;5.16;71.18;94692.47;5079321;28;20201;-71
2023/12/12 04:53:30;;;;;;;25.58;22.95;;;;;;;5.17;71.52;94693.25;5078753;28;20265;-71
2023/12/12 04:55:57;;;;;;;26.15;23.30;;;;;;;5.16;71.85;94692.47;5096671;28;20253;-71
2023/12/12 04:58:26;;;;;;;26.10;23.35;;;;;;;5.18;71.31;94703.06;5079506;28;20216;-71
2023/12/12 05:00:53;;;;;;;25.40;22.70;;;;;;;5.15;71.13;94701.78;5095359;28;20201;-70
2023/12/12 05:03:20;;;;;;;24.05;21.65;;;;;;;5.14;71.56;94697.44;5096202;28;20188;-74
2023/12/12 05:05:47;;;;;;;25.58;23.08;;;;;;;5.14;71.55;94704.84;5079100;28;20197;-72
2023/12/12 05:08:14;;;;;;;27.98;25.17;;;;;;;5.14;72.17;94704.84;5096148;28;20271;-72
2023/12/12 05:10:41;;;;;;;28.58;25.48;;;;;;;5.12;72.21;94713.38;5096028;28;20204;-73
2023/12/12 05:13:10;;;;;;;30.27;26.85;;;;;;;5.10;72.01;94725.78;5079433;28;20192;-73
2023/12/12 05:15:38;;;;;;;28.73;25.75;;;;;;;5.10;72.05;94729.31;5078678;28;20228;-73
2023/12/12 05:18:06;;;;;;;28.98;25.90;;;;;;;5.10;71.86;94731.25;5079055;28;20303;-72
2023/12/12 05:20:33;;;;;;;28.95;26.05;;;;;;;5.06;72.12;94737.34;5078913;28;20199;-73
2023/12/12 05:23:00;;;;;;;29.92;26.90;;;;;;;5.07;71.95;94735.41;5079046;28;20196;-73
2023/12/12 05:25:27;;;;;;;27.92;25.15;;;;;;;5.06;71.46;94731.09;5078891;28;20205;-72
2023/12/12 05:27:54;;;;;;;27.20;24.30;;;;;;;5.08;72.10;94731.53;5078321;28;20196;-72
2023/12/12 05:30:21;;;;;;;26.52;24.02;;;;;;;5.12;72.30;94729.78;5078557;28;20612;-72
2023/12/12 05:32:50;;;;;;;25.00;22.40;;;;;;;5.14;71.88;94727.50;5095342;28;20201;-72
2023/12/12 05:35:17;;;;;;;24.95;22.35;;;;;;;5.14;71.56;94727.50;5079095;28;20269;-72
2023/12/12 05:37:44;;;;;;;24.73;22.23;;;;;;;5.16;71.53;94722.53;5078344;28;20220;-72
2023/12/12 05:40:15;;;;;;;24.75;22.08;;;;;;;5.19;71.45;94718.31;5095020;28;20231;-72
2023/12/12 05:42:43;;;;;;;24.83;22.05;;;;;;;5.19;71.27;94735.56;5079016;28;20191;-73
2023/12/12 05:45:10;;;;;;;24.83;22.27;;;;;;;5.20;71.62;94728.94;5094910;28;20185;-73
2023/12/12 05:47:40;;;;;;;24.90;22.40;;;;;;;5.21;71.76;94727.81;5078925;28;20259;-73
2023/12/12 05:50:11;;;;;;;22.90;20.33;;;;;;;5.22;71.87;94729.41;5095404;28;20192;-73
2023/12/12 05:52:38;;;;;;;19.52;17.52;;;;;;;5.23;72.10;94728.31;5078019;28;20199;-72
2023/12/12 05:55:06;;;;;;;17.65;15.73;;;;;;;5.25;71.90;94738.91;5094971;28;20208;-72
2023/12/12 05:57:33;;;;;;;17.45;15.73;;;;;;;5.27;71.84;94745.66;5094504;28;20200;-69
2023/12/12 06:00:00;;;;;;;17.77;15.88;;;;;;;5.31;71.90;94743.88;5078331;28;20211;-69
2023/12/12 06:02:27;;;;;;;17.48;15.50;;;;;;;5.37;71.63;94746.41;5094709;28;20204;-70
2023/12/12 06:04:53;;;;;;;18.20;16.30;;;;;;;5.37;71.24;94743.69;5094656;28;20196;-70
2023/12/12 06:07:22;;;;;;;16.75;14.38;;;;;;;5.40;71.01;94740.28;5095806;28;20266;-70
2023/12/12 06:09:49;;;;;;;15.82;14.10;;;;;;;5.42;70.92;94736.09;5094845;28;20196;-70
2023/12/12 06:12:17;;;;;;;16.23;14.05;;;;;;;5.45;70.96;94734.66;5078119;28;20200;-69
2023/12/12 06:14:45;;;;;;;16.17;14.52;;;;;;;5.48;71.19;94726.59;5092520;28;20255;-69
2023/12/12 06:17:12;;;;;;;14.95;12.75;;;;;;;5.52;70.92;94718.53;5095440;28;20192;-70
2023/12/12 06:19:39;;;;;;;16.92;13.23;;;;;;;5.56;71.02;94724.94;5095007;28;20285;-70
2023/12/12 06:22:07;;;;;;;14.93;13.40;;;;;;;5.61;70.58;94727.50;5077719;28;20657;-70
2023/12/12 06:24:36;;;;;;;16.63;13.50;;;;;;;5.64;70.92;94715.88;5078161;28;20268;-70
2023/12/12 06:27:03;;;;;;;15.15;12.73;;;;;;;5.67;70.41;94726.19;5077678;28;20191;-70
2023/12/12 06:29:30;;;;;;;14.68;13.07;;;;;;;5.73;70.60;94713.88;5094673;28;20230;-70
2023/12/12 06:31:57;;;;;;;15.57;13.80;;;;;;;5.85;70.19;94706.94;5094305;28;20180;-72
2023/12/12 06:34:24;;;;;;;14.80;13.15;;;;;;;5.88;69.96;94704.34;5095161;28;20564;-71
2023/12/12 06:36:51;;;;;;;12.25;10.98;;;;;;;5.93;69.69;94708.84;5094871;28;20193;-72
2023/12/12 06:39:18;;;;;;;12.43;11.23;;;;;;;5.98;69.46;94719.56;5094618;28;20265;-72
2023/12/12 06:41:46;;;;;;;12.68;11.00;;;;;;;6.01;69.70;94718.91;5077587;28;20189;-71
2023/12/12 06:44:14;;;;;;;12.77;11.48;;;;;;;6.01;69.52;94727.13;5094534;28;20203;-71
2023/12/12 06:46:41;;;;;;;25.00;21.67;;;;;;;6.01;69.97;94741.63;5077840;28;20206;-71
2023/12/12 06:49:09;;;;;;;27.52;24.63;;;;;;;5.99;70.08;94734.84;5077629;28;20192;-72
2023/12/12 06:51:36;;;;;;;25.05;22.38;;;;;;;5.96;70.22;94741.81;5077110;28;20206;-71
2023/12/12 06:54:04;;;;;;;21.20;19.00;;;;;;;5.97;70.35;94748.91;5095070;28;20192;-72
2023/12/12 06:56:31;;;;;;;20.40;18.35;;;;;;;5.99;70.70;94759.50;5096790;28;20196;-72
2023/12/12 06:58:59;;;;;;;22.23;20.02;;;;;;;6.03;70.91;94768.69;5081118;28;20212;-72
2023/12/12 07:01:26;;;;;;;26.42;23.52;;;;;;;6.07;70.46;94768.81;5081556;28;20181;-72
2023/12/12 07:03:54;;;;;;;25.80;22.98;;;;;;;6.07;70.91;94768.81;5098559;28;20196;-72
2023/12/12 07:06:21;;;;;;;24.60;21.85;;;;;;;6.06;70.31;94778.16;5098551;28;20196;-71
2023/12/12 07:08:47;;;;;;;25.52;22.08;;;;;;;6.05;70.06;94785.56;5081077;28;20237;-73
2023/12/12 07:11:16;;;;;;;24.55;21.95;;;;;;;6.01;70.21;94779.94;5098491;28;20197;-72
2023/12/12 07:13:45;;;;;;;24.73;21.92;;;;;;;6.03;70.49;94774.16;5081794;28;20193;-73
2023/12/12 07:16:13;;;;;;;25.45;22.70;;;;;;;6.02;70.18;94778.81;5098851;28;20306;-72
2023/12/12 07:18:43;;;;;;;26.20;23.38;;;;;;;6.05;69.84;94777.34;5081454;28;20212;-72
2023/12/12 07:21:10;;;;;;;25.83;22.20;;;;;;;6.06;70.39;94780.88;5098287;28;20283;-73
2023/12/12 07:23:38;;;;;;;25.50;21.92;;;;;;;6.12;70.30;94776.84;5098093;28;20200;-73
2023/12/12 07:26:05;;;;;;;24.08;21.55;;;;;;;6.20;69.98;94781.44;5097592;28;20211;-73
2023/12/12 07:28:34;;;;;;;27.15;24.17;;;;;;;6.27;70.06;94782.53;5081047;28;20222;-73
2023/12/12 07:31:02;;;;;;;27.58;24.63;;;;;;;6.26;70.12;94780.94;5081250;28;20207;-73
2023/12/12 07:33:30;;;;;;;26.42;23.73;;;;;;;6.25;70.19;94782.06;5081109;28;20266;-73
2023/12/12 07:35:57;;;;;;;27.80;23.85;;;;;;;6.30;70.14;94786.53;5097322;28;20584;-73
2023/12/12 07:38:25;;;;;;;26.10;22.42;;;;;;;6.40;70.22;94785.34;5097373;28;20212;-72
2023/12/12 07:40:52;;;;;;;23.02;20.60;;;;;;;6.47;69.95;94780.16;5080741;28;20529;-72
2023/12/12 07:43:19;;;;;;;20.98;18.75;;;;;;;6.55;69.66;94778.47;5080792;28;20200;-72
2023/12/12 07:45:46;;;;;;;19.80;17.75;;;;;;;6.61;69.78;94766.97;5096915;28;20204;-72
2023/12/12 07:48:16;;;;;;;20.00;16.70;;;;;;;6.68;69.63;94780.13;5097251;28;20584;-72
2023/12/12 07:50:50;;;;;;;20.52;17.00;;;;;;;6.74;69.41;94768.63;5098093;28;20192;-70
2023/12/12 07:53:18;;;;;;;19.13;14.70;;;;;;;6.80;69.17;94769.25;5097371;28;20269;-72
2023/12/12 07:55:45;;;;;;;14.90;13.35;;;;;;;6.87;69.36;94766.75;5096939;28;20219;-72
2023/12/12 07:58:12;;;;;;;15.85;13.15;;;;;;;6.94;69.30;94764.28;5097119;28;20212;-72
2023/12/12 08:00:39;;;;;;;16.35;12.82;;;;;;;7.03;69.44;94768.88;5097462;28;20200;-72
2023/12/12 08:03:06;;;;;;;14.20;12.70;;;;;;;7.09;68.99;94771.06;5097024;28;20200;-73
2023/12/12 08:05:32;;;;;;;15.52;12.45;;;;;;;7.18;69.34;94776.44;5080468;28;20245;-72
2023/12/12 08:08:04;;;;;;;16.90;13.45;;;;;;;7.22;69.35;94777.38;5079755;28;20209;-72
2023/12/12 08:10:31;;;;;;;13.57;12.18;;;;;;;7.29;69.58;94774.06;5080444;28;20254;-72
2023/12/12 08:13:00;;;;;;;13.65;11.48;;;;;;;7.38;69.29;94769.31;5096624;28;20196;-72
2023/12/12 08:15:27;;;;;;;12.15;10.32;;;;;;;7.49;69.03;94756.75;5095131;28;20293;-72
2023/12/12 08:17:54;;;;;;;12.07;10.35;;;;;;;7.58;69.03;94754.69;5097293;28;20193;-72
2023/12/12 08:20:21;;;;;;;10.80;9.70;;;;;;;7.67;68.95;94760.09;5097082;28;20220;-72
2023/12/12 08:22:48;;;;;;;11.95;9.95;;;;;;;7.76;69.07;94766.25;5080090;28;20207;-72
2023/12/12 08:25:16;;;;;;;12.25;8.88;;;;;;;7.88;68.42;94752.56;5080306;28;20241;-72
2023/12/12 08:27:44;;;;;;;7.57;5.50;;;;;;;8.03;67.20;94756.56;5080041;28;20265;-72
2023/12/12 08:30:12;;;;;;;7.00;4.20;;;;;;;8.18;65.65;94744.06;5079329;28;20193;-72
2023/12/12 08:32:39;;;;;;;4.50;3.28;;;;;;;8.31;64.63;94739.34;5079303;28;20193;-72
2023/12/12 08:35:07;;;;;;;4.38;3.28;;;;;;;8.41;63.74;94741.66;5080014;28;20196;-73
2023/12/12 08:37:33;;;;;;;4.63;3.25;;;;;;;8.51;63.51;94743.13;5079043;28;20587;-73
2023/12/12 08:40:02;;;;;;;3.38;3.08;;;;;;;8.58;63.09;94746.88;5079620;28;20216;-73
2023/12/12 08:42:30;;;;;;;3.42;2.70;;;;;;;8.63;62.71;94749.38;5079915;28;20223;-73
2023/12/12 08:44:57;;;;;;;5.88;4.25;;;;;;;8.72;62.61;94749.25;5079344;28;20239;-73
2023/12/12 08:47:24;;;;;;;8.23;4.82;;;;;;;8.76;62.23;94741.91;5078945;28;20221;-73
2023/12/12 08:49:51;;;;;;;10.20;5.25;;;;;;;8.78;62.69;94756.06;5078889;28;20250;-73
2023/12/12 08:52:18;;;;;;;9.73;8.27;;;;;;;8.77;63.27;94751.75;5079407;28;20201;-73
2023/12/12 08:54:45;;;;;;;11.35;7.68;;;;;;;8.67;63.21;94763.22;5079041;28;20196;-73
2023/12/12 08:57:15;;;;;;;8.85;7.30;;;;;;;8.57;63.64;94748.03;5079533;28;20329;-73
2023/12/12 08:59:43;;;;;;;9.15;6.60;;;;;;;8.56;63.75;94743.66;5079730;28;20297;-73
2023/12/12 09:02:10;;;;;;;8.43;5.90;;;;;;;8.55;63.63;94750.31;5079113;28;20253;-73
2023/12/12 09:04:38;;;;;;;7.82;5.60;;;;;;;8.59;63.26;94748.47;5079111;28;20196;-73
2023/12/12 09:07:05;;;;;;;9.18;5.80;;;;;;;8.63;63.58;94738.38;5078935;28;20238;-73
2023/12/12 09:09:33;;;;;;;7.90;6.43;;;;;;;8.70;62.90;94747.97;5078460;28;20584;-73
2023/12/12 09:12:00;;;;;;;10.35;6.25;;;;;;;8.74;63.12;94751.63;5078930;28;20574;-73
2023/12/12 09:14:28;;;;;;;4.82;4.10;;;;;;;8.79;63.21;94745.91;5073979;28;20322;-73
2023/12/12 09:16:56;;;;;;;4.57;3.92;;;;;;;8.89;62.91;94753.63;5058299;28;20204;-72
2023/12/12 09:19:23;;;;;;;6.53;4.97;;;;;;;8.97;62.47;94765.63;5057189;28;20262;-72
2023/12/12 09:21:51;;;;;;;8.15;5.68;;;;;;;9.02;61.91;94773.66;5058249;28;20193;-72
2023/12/12 09:24:17;;;;;;;6.40;4.68;;;;;;;9.03;61.21;94773.28;5058206;28;20706;-72
2023/12/12 09:26:45;;;;;;;6.18;5.43;;;;;;;9.02;60.93;94770.91;5058279;28;20188;-72
2023/12/12 09:29:12;;;;;;;8.15;5.70;;;;;;;9.01;60.71;94770.13;5059147;28;20194;-72
2023/12/12 09:31:39;;;;;;;12.38;8.75;;;;;;;9.05;60.90;94762.75;5075810;28;20193;-72
2023/12/12 09:34:08;;;;;;;9.60;6.43;;;;;;;9.07;60.60;94765.94;5058197;28;20259;-72
2023/12/12 09:36:35;;;;;;;6.43;4.80;;;;;;;9.12;60.63;94767.66;5058731;28;20643;-72
2023/12/12 09:39:06;;;;;;;5.35;4.85;;;;;;;9.16;60.33;94769.34;5058068;28;20216;-72
2023/12/12 09:41:33;;;;;;;5.68;4.60;;;;;;;9.22;60.39;94750.63;5059031;28;20200;-73
2023/12/12 09:44:01;;;;;;;4.10;3.70;;;;;;;9.42;60.35;94748.00;5057992;28;20201;-72
2023/12/12 09:46:29;;;;;;;3.95;3.25;;;;;;;9.64;59.85;94748.19;5058896;28;20288;-72
2023/12/12 09:48:56;;;;;;;2.90;2.25;;;;;;;9.80;59.50;94739.97;5058867;28;20216;-72
2023/12/12 09:51:25;;;;;;;2.70;2.50;;;;;;;10.05;59.00;94740.53;5058876;28;20259;-72
2023/12/12 09:53:53;;;;;;;2.03;1.92;;;;;;;10.22;57.52;94744.06;5058397;28;20209;-72
2023/12/12 09:56:20;;;;;;;2.42;2.03;;;;;;;10.41;58.11;94741.38;5058702;28;20590;-72
2023/12/12 09:58:49;;;;;;;2.08;1.98;;;;;;;10.70;56.14;94742.81;5058025;28;20204;-72
2023/12/12 10:01:17;;;;;;;2.28;2.03;;;;;;;10.60;55.75;94738.69;5058424;28;20204;-72
2023/12/12 10:03:44;;;;;;;3.25;2.10;;;;;;;10.52;56.57;94741.63;5058416;28;20193;-73
2023/12/12 10:06:12;;;;;;;2.25;2.03;;;;;;;10.47;56.10;94739.97;5058487;28;20201;-73
2023/12/12 10:08:41;;;;;;;2.40;1.90;;;;;;;10.46;56.59;94738.38;5058636;28;20277;-73
2023/12/12 10:11:09;;;;;;;2.00;1.90;;;;;;;10.55;57.39;94730.69;5057814;28;20201;-73
2023/12/12 10:13:50;;;;;;;2.40;2.10;;;;;;;10.85;56.73;94727.34;5074974;28;20258;-72
2023/12/12 10:16:18;;;;;;;2.60;2.13;;;;;;;11.07;55.79;94723.06;5072540;28;20294;-72
2023/12/12 10:18:46;;;;;;;2.88;2.10;;;;;;;11.12;55.34;94733.03;5058062;28;20197;-72
2023/12/12 10:21:17;;;;;;;2.13;1.92;;;;;;;11.06;55.05;94733.31;5058101;28;20197;-72
2023/12/12 10:23:46;;;;;;;4.22;3.83;;;;;;;10.98;55.08;94726.06;5057656;28;20197;-72
2023/12/12 10:26:14;;;;;;;3.58;3.25;;;;;;;10.94;55.11;94744.50;5058085;28;20227;-72
2023/12/12 10:28:41;;;;;;;3.30;3.00;;;;;;;10.91;55.10;94750.75;5057573;28;20519;-72
2023/12/12 10:31:09;;;;;;;2.47;2.28;;;;;;;10.89;54.64;94750.28;5061584;28;20258;-72
2023/12/12 10:33:37;;;;;;;2.65;2.38;;;;;;;10.91;55.52;94738.91;5064723;28;20197;-73
2023/12/12 10:36:09;;;;;;;4.63;2.45;;;;;;;10.91;55.33;94736.16;5082036;28;20216;-73
2023/12/12 10:38:37;;;;;;;4.00;3.38;;;;;;;10.89;56.24;94732.94;5064281;28;20201;-73
2023/12/12 10:41:14;;;;;;;2.97;2.70;;;;;;;10.84;56.28;94723.00;5063798;28;20223;-73
2023/12/12 10:43:41;;;;;;;4.03;3.10;;;;;;;10.83;56.10;94729.69;5063756;28;20220;-73
2023/12/12 10:46:12;;;;;;;3.53;2.60;;;;;;;10.77;56.15;94737.44;5064428;28;20542;-72
2023/12/12 10:48:46;;;;;;;5.22;2.92;;;;;;;10.68;56.58;94739.63;5064097;28;20207;-72
2023/12/12 10:51:13;;;;;;;3.17;2.80;;;;;;;10.51;57.05;94746.34;5064154;28;20200;-72
2023/12/12 10:53:42;;;;;;;4.25;3.25;;;;;;;10.44;57.30;94759.97;5064910;28;20234;-72
2023/12/12 10:56:12;;;;;;;5.78;3.97;;;;;;;10.28;57.77;94770.25;5063655;28;20227;-72
2023/12/12 10:58:41;;;;;;;5.90;4.60;;;;;;;10.17;57.84;94767.22;5063955;28;20182;-72
2023/12/12 11:01:10;;;;;;;6.28;5.22;;;;;;;10.13;58.57;94764.38;5081488;28;20224;-72
2023/12/12 11:03:38;;;;;;;5.32;3.90;;;;;;;10.10;58.46;94765.09;5063867;28;20605;-72
2023/12/12 11:06:06;;;;;;;5.00;4.13;;;;;;;10.07;58.76;94765.00;5063608;28;20189;-72
2023/12/12 11:08:35;;;;;;;6.35;5.18;;;;;;;10.09;58.81;94765.41;5063578;28;20538;-72
2023/12/12 11:11:06;;;;;;;5.85;3.95;;;;;;;10.07;59.20;94765.78;5063892;28;20251;-72
2023/12/12 11:13:38;;;;;;;7.25;3.83;;;;;;;10.14;59.15;94756.91;5064297;28;20196;-72
2023/12/12 11:16:09;;;;;;;4.97;3.90;;;;;;;10.22;59.17;94755.91;5045433;28;20332;-72
2023/12/12 11:18:37;;;;;;;5.30;4.22;;;;;;;10.59;59.33;94756.38;5043483;28;20211;-72
2023/12/12 11:21:05;;;;;;;7.28;4.03;;;;;;;11.44;58.38;94744.69;5061463;28;20213;-72
2023/12/12 11:23:55;;;;;;;6.75;3.80;;;;;;;11.99;55.35;94742.53;5044503;28;20247;-72
2023/12/12 11:26:24;;;;;;;5.03;3.25;;;;;;;12.81;53.11;94756.78;5054306;28;20236;-72
2023/12/12 11:28:53;;;;;;;4.03;3.42;;;;;;;13.35;51.96;94744.44;5061227;28;20186;-72
2023/12/12 11:31:27;;;;;;;5.10;3.35;;;;;;;14.44;48.04;94737.50;5044264;28;20201;-72
2023/12/12 11:34:04;;;;;;;4.45;3.65;;;;;;;13.96;48.14;94735.53;5043983;28;20569;-72